CheckWX is a tool to help pilots better visualize weather data.  It is not intended as a substitute for an official pre-flight weather briefing.

02:22:19 UTC

KSGJ TAF
Northeast Florida Regional Airport
St Augustine, Florida, USA
KSGJ 182350Z 1900/1924 02006KT P6SM OVC200 FM191100 02010G15KT P6SM SCT035 BKN060 OVC150 FM191400 03018G28KT P6SM VCSH BKN025 BKN040 OVC070 PROB30 1915/1919 5SM SHRA BR OVC025 FM192300 03015G25KT P6SM SCT030 BKN060 OVC100

Mar-19@
00:00 UTC

Mar-19 @ 00:00 UTC

Mar-19@
11:00 UTC

Mar-19 @ 11:00 UTC

KSGJ 182350Z 1900/1924 02006KT P6SM OVC200
Wind
  • 020° at 6 KTS
Cloud Levels
  • Overcast at 20,000' AGL

Mar-19@
11:00 UTC

Mar-19 @ 11:00 UTC

Mar-19@
14:00 UTC

Mar-19 @ 14:00 UTC

FM191100 02010G15KT P6SM SCT035 BKN060 OVC150

From

From Standard forecast or significant change

Wind
  • 020° at 10 KTS
  • {Gusting to 15 KTS
Cloud Levels
  • Scattered at 3,500' AGL
  • Broken at 6,000' AGL
  • Overcast at 15,000' AGL

Mar-19@
14:00 UTC

Mar-19 @ 14:00 UTC

Mar-19@
23:00 UTC

Mar-19 @ 23:00 UTC

FM191400 03018G28KT P6SM VCSH BKN025 BKN040 OVC070

From

From Standard forecast or significant change

Wind
  • 030° at 18 KTS
  • {Gusting to 28 KTS
Cloud Levels
  • Broken at 2,500' AGL
  • Broken at 4,000' AGL
  • Overcast at 7,000' AGL

Mar-19@
15:00 UTC

Mar-19 @ 15:00 UTC

Mar-19@
19:00 UTC

Mar-19 @ 19:00 UTC

PROB30 1915/1919 5SM SHRA BR OVC025

Probable - 30% Likelihood

Probable - 30% Likelihood during this time.

Conditions
Rain, Mist
Cloud Levels
  • Overcast at 2,500' AGL

Mar-19@
23:00 UTC

Mar-19 @ 23:00 UTC

Mar-20@
00:00 UTC

Mar-20 @ 00:00 UTC

FM192300 03015G25KT P6SM SCT030 BKN060 OVC100

From

From Standard forecast or significant change

Wind
  • 030° at 15 KTS
  • {Gusting to 25 KTS
Cloud Levels
  • Scattered at 3,000' AGL
  • Broken at 6,000' AGL
  • Overcast at 10,000' AGL